createdAt,value
2019-01-16T00:00:29.355Z,26.93
2019-01-16T00:01:33.528Z,26.87
2019-01-16T00:02:27.615Z,26.35
2019-01-16T00:03:29.302Z,26.60
2019-01-16T00:04:21.083Z,26.45
2019-01-16T00:05:16.676Z,26.23
2019-01-16T00:06:18.831Z,26.35
2019-01-16T00:07:20.378Z,26.40
2019-01-16T00:08:11.602Z,25.82
2019-01-16T00:09:05.949Z,26.20
2019-01-16T00:10:06.326Z,26.35
2019-01-16T00:11:14.091Z,26.12
2019-01-16T00:11:56.952Z,26.00
2019-01-16T00:12:48.304Z,28.65
2019-01-16T00:13:39.883Z,25.90
2019-01-16T00:14:31.412Z,27.22
2019-01-16T00:15:24.188Z,27.48
2019-01-16T00:16:07.427Z,31.65
2019-01-16T00:16:48.807Z,25.92
2019-01-16T00:17:41.449Z,26.97
2019-01-16T00:18:34.080Z,26.65
2019-01-16T00:19:25.173Z,28.17
2019-01-16T00:20:19.448Z,26.02
2019-01-16T00:21:03.972Z,26.77
2019-01-16T00:22:02.526Z,26.33
2019-01-16T00:22:46.982Z,26.50
2019-01-16T00:23:39.816Z,30.43
2019-01-16T00:24:32.479Z,26.45
2019-01-16T00:25:24.116Z,25.65
2019-01-16T00:26:32.149Z,27.62
2019-01-16T00:27:23.853Z,26.07
2019-01-16T00:28:15.082Z,26.45
2019-01-16T00:29:07.874Z,26.20
2019-01-16T00:29:56.530Z,26.02
2019-01-16T00:30:40.623Z,26.70
2019-01-16T00:31:32.205Z,26.55
2019-01-16T00:32:18.634Z,25.72
2019-01-16T00:33:08.718Z,26.02
2019-01-16T00:33:53.537Z,25.70
2019-01-16T00:34:48.668Z,25.55
2019-01-16T00:35:40.030Z,25.92
2019-01-16T00:36:30.950Z,26.17
2019-01-16T00:37:32.856Z,26.02
2019-01-16T00:38:31.406Z,26.35
2019-01-16T00:39:40.401Z,26.68
2019-01-16T00:40:43.204Z,25.25
2019-01-16T00:41:34.636Z,25.97
2019-01-16T00:42:27.430Z,25.65
2019-01-16T00:43:17.290Z,25.82
2019-01-16T00:44:08.876Z,26.17
2019-01-16T00:45:04.397Z,25.27
2019-01-16T00:45:55.946Z,26.10
2019-01-16T00:46:53.526Z,27.87
2019-01-16T00:47:39.061Z,25.45
2019-01-16T00:48:30.825Z,25.90
2019-01-16T00:49:29.558Z,26.20
2019-01-16T00:50:38.434Z,25.92
2019-01-16T00:51:30.042Z,26.05
2019-01-16T00:52:38.328Z,26.17
2019-01-16T00:53:33.906Z,25.55
2019-01-16T00:54:21.725Z,25.17
2019-01-16T00:55:16.935Z,25.77
2019-01-16T00:56:01.568Z,26.70
2019-01-16T00:56:52.462Z,25.90
2019-01-16T00:57:57.244Z,25.85
2019-01-16T00:58:48.252Z,25.62
2019-01-16T00:59:51.288Z,25.72
2019-01-16T01:00:36.632Z,26.37
2019-01-16T01:01:28.571Z,26.12
2019-01-16T01:02:17.170Z,25.95
2019-01-16T01:02:58.440Z,25.90
2019-01-16T01:04:04.086Z,25.32
2019-01-16T01:04:55.618Z,26.10
2019-01-16T01:05:53.456Z,25.75
2019-01-16T01:06:58.138Z,25.55
2019-01-16T01:08:00.147Z,26.42
2019-01-16T01:08:52.887Z,25.35
2019-01-16T01:10:00.938Z,25.85
2019-01-16T01:11:02.614Z,25.92
2019-01-16T01:11:53.396Z,25.95
2019-01-16T01:12:47.380Z,26.65
2019-01-16T01:13:37.327Z,25.97
2019-01-16T01:14:28.572Z,26.20
2019-01-16T01:15:27.614Z,25.43
2019-01-16T01:16:09.359Z,27.02
2019-01-16T01:17:00.530Z,26.30
2019-01-16T01:17:51.770Z,26.73
2019-01-16T01:18:47.446Z,25.72
2019-01-16T01:19:38.915Z,25.77
2019-01-16T01:20:32.496Z,25.45
2019-01-16T01:21:20.262Z,26.10
2019-01-16T01:22:15.948Z,25.12
2019-01-16T01:23:07.972Z,24.85
2019-01-16T01:23:59.343Z,26.00
2019-01-16T01:24:53.627Z,24.90
2019-01-16T01:25:47.035Z,25.45
2019-01-16T01:26:38.402Z,26.97
2019-01-16T01:27:29.795Z,25.52
2019-01-16T01:28:26.257Z,25.40
2019-01-16T01:29:22.211Z,25.43
2019-01-16T01:30:13.292Z,24.70
2019-01-16T01:31:12.098Z,25.45
2019-01-16T01:32:01.796Z,25.23
2019-01-16T01:32:52.869Z,25.88
2019-01-16T01:33:54.550Z,25.50
2019-01-16T01:34:39.627Z,25.92
2019-01-16T01:35:28.967Z,25.05
2019-01-16T01:36:16.907Z,25.30
2019-01-16T01:37:09.676Z,25.40
2019-01-16T01:38:01.009Z,25.17
2019-01-16T01:38:50.798Z,25.88
2019-01-16T01:39:47.139Z,25.43
2019-01-16T01:40:38.604Z,25.60
2019-01-16T01:41:43.565Z,25.55
2019-01-16T01:42:51.412Z,25.57
2019-01-16T01:43:46.964Z,25.60
2019-01-16T01:44:40.280Z,25.40
2019-01-16T01:45:31.801Z,25.35
2019-01-16T01:46:18.385Z,25.43
2019-01-16T01:47:00.273Z,25.48
2019-01-16T01:47:41.644Z,24.45
2019-01-16T01:48:39.771Z,25.90
2019-01-16T01:49:32.123Z,25.10
2019-01-16T01:50:23.977Z,24.75
2019-01-16T01:51:16.720Z,25.17
2019-01-16T01:52:07.946Z,25.20
2019-01-16T01:52:55.827Z,25.25
2019-01-16T01:53:37.349Z,25.62
2019-01-16T01:54:28.739Z,26.17
2019-01-16T01:55:17.453Z,25.50
2019-01-16T01:56:12.823Z,25.70
2019-01-16T01:56:54.723Z,25.05
2019-01-16T01:57:56.428Z,24.98
2019-01-16T01:58:45.421Z,25.65
2019-01-16T01:59:36.638Z,24.72
2019-01-16T02:00:45.330Z,25.15
2019-01-16T02:01:41.087Z,24.92
2019-01-16T02:02:23.026Z,25.12
2019-01-16T02:03:19.740Z,25.12
2019-01-16T02:04:21.569Z,27.22
2019-01-16T02:05:18.205Z,25.00
2019-01-16T02:06:09.667Z,25.35
2019-01-16T02:06:56.135Z,25.08
2019-01-16T02:07:47.837Z,25.43
2019-01-16T02:08:39.353Z,25.12
2019-01-16T02:09:32.514Z,25.57
2019-01-16T02:10:45.013Z,25.45
2019-01-16T02:11:37.293Z,24.98
2019-01-16T02:12:18.577Z,25.45
2019-01-16T02:13:11.425Z,25.80
2019-01-16T02:13:53.189Z,25.20
2019-01-16T02:15:01.064Z,24.77
2019-01-16T02:15:53.903Z,24.80
2019-01-16T02:16:45.916Z,25.20
2019-01-16T02:17:50.845Z,24.90
2019-01-16T02:18:47.342Z,24.80
2019-01-16T02:19:35.822Z,24.98
2019-01-16T02:20:28.077Z,25.40
2019-01-16T02:21:13.946Z,25.80
2019-01-16T02:22:18.905Z,26.23
2019-01-16T02:23:14.829Z,26.87
2019-01-16T02:24:02.703Z,24.87
2019-01-16T02:25:04.463Z,25.17
2019-01-16T02:26:03.846Z,24.82
2019-01-16T02:26:47.231Z,24.47
2019-01-16T02:27:45.911Z,25.50
2019-01-16T02:28:46.545Z,26.62
2019-01-16T02:29:28.741Z,25.88
2019-01-16T02:30:32.346Z,27.05
2019-01-16T02:31:34.087Z,24.47
2019-01-16T02:32:25.531Z,25.70
2019-01-16T02:33:15.971Z,25.65
2019-01-16T02:34:07.737Z,25.50
2019-01-16T02:35:09.705Z,25.80
2019-01-16T02:35:51.221Z,25.43
2019-01-16T02:36:43.139Z,25.23
2019-01-16T02:37:26.557Z,25.45
2019-01-16T02:38:22.216Z,25.62
2019-01-16T02:39:27.021Z,25.12
2019-01-16T02:40:13.452Z,25.62
2019-01-16T02:41:02.321Z,25.57
2019-01-16T02:42:01.042Z,25.27
2019-01-16T02:42:45.119Z,25.00
2019-01-16T02:43:36.282Z,25.08
2019-01-16T02:44:29.366Z,25.10
2019-01-16T02:45:21.401Z,25.05
2019-01-16T02:46:14.013Z,25.65
2019-01-16T02:46:57.940Z,25.75
2019-01-16T02:47:59.599Z,25.08
2019-01-16T02:48:56.292Z,25.70
2019-01-16T02:49:46.839Z,26.05
2019-01-16T02:50:34.943Z,25.97
2019-01-16T02:51:20.596Z,24.00
2019-01-16T02:52:19.319Z,26.10
2019-01-16T02:53:03.929Z,25.97
2019-01-16T02:53:54.399Z,25.20
2019-01-16T02:54:45.810Z,25.80
2019-01-16T02:55:34.049Z,25.00
2019-01-16T02:56:14.520Z,24.75
2019-01-16T02:57:04.430Z,25.77
2019-01-16T02:58:03.175Z,25.35
2019-01-16T02:58:58.240Z,24.98
2019-01-16T02:59:48.710Z,25.85
2019-01-16T03:00:44.410Z,25.35
2019-01-16T03:01:40.196Z,25.37
2019-01-16T03:02:36.064Z,25.60
2019-01-16T03:03:21.408Z,24.95
2019-01-16T03:04:32.128Z,25.82
2019-01-16T03:05:35.911Z,26.33
2019-01-16T03:06:28.204Z,25.40
2019-01-16T03:07:21.126Z,25.20
2019-01-16T03:08:01.480Z,27.70
2019-01-16T03:08:43.846Z,24.92
2019-01-16T03:09:54.693Z,25.02
2019-01-16T03:10:57.691Z,24.95
2019-01-16T03:11:51.993Z,28.95
2019-01-16T03:12:36.502Z,24.67
2019-01-16T03:13:38.039Z,24.60
2019-01-16T03:14:36.706Z,25.20
2019-01-16T03:15:22.416Z,24.67
2019-01-16T03:16:27.390Z,24.82
2019-01-16T03:17:22.215Z,24.35
2019-01-16T03:18:13.658Z,25.35
2019-01-16T03:19:05.391Z,24.95
2019-01-16T03:19:47.184Z,25.20
2019-01-16T03:20:49.136Z,25.65
2019-01-16T03:21:50.772Z,25.37
2019-01-16T03:22:42.052Z,25.25
2019-01-16T03:23:33.466Z,25.12
2019-01-16T03:24:28.952Z,24.98
2019-01-16T03:25:24.351Z,24.82
2019-01-16T03:26:28.799Z,24.60
2019-01-16T03:27:21.601Z,25.05
2019-01-16T03:28:14.426Z,24.82
2019-01-16T03:29:13.026Z,25.17
2019-01-16T03:30:04.769Z,25.00
2019-01-16T03:31:03.465Z,25.17
2019-01-16T03:32:02.849Z,24.87
2019-01-16T03:33:06.054Z,24.52
2019-01-16T03:34:09.944Z,25.30
2019-01-16T03:34:56.003Z,24.30
2019-01-16T03:36:03.797Z,24.30
2019-01-16T03:36:55.593Z,24.70
2019-01-16T03:37:57.342Z,24.60
2019-01-16T03:38:48.715Z,24.77
2019-01-16T03:39:40.314Z,25.00
2019-01-16T03:40:33.960Z,24.70
2019-01-16T03:41:25.432Z,24.35
2019-01-16T03:42:18.612Z,24.50
2019-01-16T03:43:14.313Z,24.80
2019-01-16T03:44:10.216Z,24.52
2019-01-16T03:44:55.581Z,24.75
2019-01-16T03:45:36.238Z,25.05
2019-01-16T03:46:24.958Z,24.98
2019-01-16T03:47:16.635Z,24.47
2019-01-16T03:48:12.706Z,24.98
2019-01-16T03:49:13.207Z,25.92
2019-01-16T03:50:01.761Z,25.08
2019-01-16T03:50:52.242Z,25.72
2019-01-16T03:51:50.838Z,24.67
2019-01-16T03:52:42.310Z,24.60
2019-01-16T03:53:26.971Z,24.45
2019-01-16T03:54:21.238Z,25.52
2019-01-16T03:55:20.134Z,24.87
2019-01-16T03:56:22.910Z,25.50
2019-01-16T03:57:07.041Z,24.52
2019-01-16T03:57:59.660Z,25.52
2019-01-16T03:58:58.040Z,25.02
2019-01-16T03:59:50.753Z,24.82
2019-01-16T04:00:56.202Z,24.77
2019-01-16T04:01:47.633Z,24.98
2019-01-16T04:02:39.636Z,24.75
2019-01-16T04:03:44.398Z,24.70
2019-01-16T04:04:30.412Z,25.15
2019-01-16T04:05:15.578Z,24.70
2019-01-16T04:06:10.875Z,24.30
2019-01-16T04:07:04.411Z,25.23
2019-01-16T04:07:54.302Z,24.65
2019-01-16T04:08:47.026Z,24.63
2019-01-16T04:09:38.231Z,24.55
2019-01-16T04:10:29.856Z,25.62
2019-01-16T04:11:23.724Z,24.87
2019-01-16T04:12:14.916Z,25.32
2019-01-16T04:13:08.993Z,24.90
2019-01-16T04:14:13.900Z,24.15
2019-01-16T04:14:57.940Z,24.40
2019-01-16T04:15:48.320Z,24.12
2019-01-16T04:16:43.696Z,24.27
2019-01-16T04:17:36.516Z,25.05
2019-01-16T04:18:29.353Z,24.20
2019-01-16T04:19:31.220Z,24.72
2019-01-16T04:20:28.492Z,24.30
2019-01-16T04:21:09.656Z,24.90
2019-01-16T04:21:49.480Z,24.32
2019-01-16T04:22:35.988Z,24.15
2019-01-16T04:23:23.957Z,23.73
2019-01-16T04:24:15.533Z,24.47
2019-01-16T04:25:12.121Z,24.72
2019-01-16T04:26:03.081Z,24.18
2019-01-16T04:26:54.715Z,23.95
2019-01-16T04:27:51.210Z,23.65
2019-01-16T04:28:47.029Z,24.45
2019-01-16T04:29:51.694Z,23.90
2019-01-16T04:30:37.767Z,24.47
2019-01-16T04:31:19.047Z,24.90
2019-01-16T04:32:14.735Z,23.83
2019-01-16T04:33:17.271Z,24.45
2019-01-16T04:34:08.761Z,23.75
2019-01-16T04:35:13.437Z,23.80
2019-01-16T04:36:01.856Z,23.77
2019-01-16T04:36:48.668Z,24.10
2019-01-16T04:37:45.090Z,23.95
2019-01-16T04:38:45.743Z,24.05
2019-01-16T04:39:41.035Z,24.18
2019-01-16T04:40:20.718Z,24.30
2019-01-16T04:41:00.879Z,24.15
2019-01-16T04:41:40.921Z,24.20
2019-01-16T04:42:27.087Z,24.43
2019-01-16T04:43:18.671Z,24.60
2019-01-16T04:44:14.297Z,24.07
2019-01-16T04:45:06.861Z,24.10
2019-01-16T04:45:50.565Z,24.18
2019-01-16T04:46:46.051Z,24.82
2019-01-16T04:47:41.374Z,23.70
2019-01-16T04:48:36.775Z,23.75
2019-01-16T04:49:30.331Z,23.90
2019-01-16T04:50:26.515Z,24.55
2019-01-16T04:51:34.299Z,23.87
2019-01-16T04:52:27.003Z,24.10
2019-01-16T04:53:18.862Z,23.77
2019-01-16T04:54:06.608Z,24.05
2019-01-16T04:54:57.993Z,24.33
2019-01-16T04:55:51.157Z,25.92
2019-01-16T04:56:43.407Z,24.45
2019-01-16T04:57:30.503Z,24.20
2019-01-16T04:58:25.909Z,23.90
2019-01-16T04:59:17.083Z,24.72
2019-01-16T05:00:01.106Z,24.10
2019-01-16T05:01:02.930Z,23.70
2019-01-16T05:02:01.533Z,24.10
2019-01-16T05:03:03.107Z,24.00
2019-01-16T05:03:55.889Z,23.80
2019-01-16T05:04:48.777Z,24.32
2019-01-16T05:05:44.441Z,23.75
2019-01-16T05:06:33.427Z,24.27
2019-01-16T05:07:16.007Z,24.37
2019-01-16T05:08:08.125Z,24.55
2019-01-16T05:08:59.455Z,24.43
2019-01-16T05:09:50.875Z,24.20
2019-01-16T05:10:51.427Z,24.75
2019-01-16T05:11:41.244Z,24.90
2019-01-16T05:12:39.737Z,24.52
2019-01-16T05:13:30.082Z,25.08
2019-01-16T05:14:40.978Z,24.77
2019-01-16T05:15:32.693Z,25.05
2019-01-16T05:16:24.479Z,25.25
2019-01-16T05:17:21.246Z,24.10
2019-01-16T05:18:23.093Z,25.00
2019-01-16T05:19:14.491Z,25.25
2019-01-16T05:20:06.023Z,24.47
2019-01-16T05:20:58.757Z,24.67
2019-01-16T05:21:44.075Z,24.98
2019-01-16T05:22:55.191Z,25.68
2019-01-16T05:23:47.994Z,24.67
2019-01-16T05:24:49.747Z,25.00
2019-01-16T05:25:39.509Z,24.80
2019-01-16T05:26:27.918Z,25.90
2019-01-16T05:27:19.454Z,25.40
2019-01-16T05:28:21.306Z,30.82
2019-01-16T05:29:12.292Z,25.75
2019-01-16T05:30:01.969Z,25.65
2019-01-16T05:30:57.623Z,26.20
2019-01-16T05:31:41.986Z,30.32
2019-01-16T05:32:24.706Z,27.27
2019-01-16T05:33:07.416Z,27.55
2019-01-16T05:34:09.453Z,29.72
2019-01-16T05:35:14.075Z,31.73
2019-01-16T05:35:58.933Z,32.98
2019-01-16T05:36:51.648Z,27.98
2019-01-16T05:37:43.487Z,28.07
2019-01-16T05:38:51.130Z,35.98
2019-01-16T05:39:43.768Z,29.87
2019-01-16T05:40:55.042Z,31.65
2019-01-16T05:41:53.428Z,29.90
2019-01-16T05:42:49.091Z,31.93
2019-01-16T05:43:54.170Z,37.08
2019-01-16T05:44:45.947Z,33.13
2019-01-16T05:45:36.879Z,35.40
2019-01-16T05:46:32.785Z,30.27
2019-01-16T05:47:12.601Z,36.25
2019-01-16T05:48:04.294Z,31.52
2019-01-16T05:49:01.771Z,35.45
2019-01-16T05:50:00.375Z,35.20
2019-01-16T05:51:02.037Z,30.43
2019-01-16T05:51:52.574Z,27.85
2019-01-16T05:52:45.293Z,29.15
2019-01-16T05:53:34.456Z,34.58
2019-01-16T05:54:27.210Z,34.15
2019-01-16T05:55:27.771Z,34.73
2019-01-16T05:56:19.126Z,29.42
2019-01-16T05:57:23.728Z,32.70
2019-01-16T05:58:09.843Z,34.40
2019-01-16T05:59:01.622Z,33.02
2019-01-16T05:59:41.674Z,29.70
2019-01-16T06:00:28.802Z,31.73
2019-01-16T06:01:20.339Z,40.08
2019-01-16T06:02:02.569Z,35.17
2019-01-16T06:02:53.251Z,31.70
2019-01-16T06:03:45.126Z,29.75
2019-01-16T06:04:53.039Z,32.50
2019-01-16T06:05:42.136Z,32.88
2019-01-16T06:06:34.738Z,31.02
2019-01-16T06:07:27.435Z,36.20
2019-01-16T06:08:21.858Z,33.75
2019-01-16T06:09:14.495Z,29.45
2019-01-16T06:09:58.736Z,33.73
2019-01-16T06:10:42.568Z,33.48
2019-01-16T06:11:47.582Z,28.27
2019-01-16T06:12:52.457Z,33.88
2019-01-16T06:13:51.040Z,33.88
2019-01-16T06:14:42.811Z,34.05
2019-01-16T06:15:34.422Z,32.75
2019-01-16T06:16:34.799Z,34.25
2019-01-16T06:17:19.896Z,31.35
2019-01-16T06:18:32.062Z,32.75
2019-01-16T06:19:40.012Z,28.38
2019-01-16T06:20:38.802Z,28.40
2019-01-16T06:21:27.792Z,31.23
2019-01-16T06:22:18.594Z,28.73
2019-01-16T06:23:04.152Z,32.95
2019-01-16T06:24:04.556Z,32.75
2019-01-16T06:24:55.063Z,32.08
2019-01-16T06:25:46.588Z,29.80
2019-01-16T06:26:51.362Z,32.48
2019-01-16T06:27:53.300Z,29.25
2019-01-16T06:28:39.406Z,32.73
2019-01-16T06:29:31.310Z,28.02
2019-01-16T06:30:24.264Z,28.02
2019-01-16T06:31:15.414Z,32.13
2019-01-16T06:31:56.989Z,28.02
2019-01-16T06:32:46.924Z,30.25
2019-01-16T06:33:38.113Z,29.77
2019-01-16T06:34:30.871Z,29.45
2019-01-16T06:35:24.700Z,29.35
2019-01-16T06:36:09.654Z,28.87
2019-01-16T06:36:56.365Z,30.80
2019-01-16T06:37:47.872Z,36.88
2019-01-16T06:38:39.560Z,28.73
2019-01-16T06:39:32.258Z,28.75
2019-01-16T06:40:38.254Z,33.28
2019-01-16T06:41:22.510Z,33.33
2019-01-16T06:42:13.922Z,29.12
2019-01-16T06:43:00.614Z,33.60
2019-01-16T06:43:56.671Z,37.73
2019-01-16T06:44:48.286Z,30.65
2019-01-16T06:45:41.148Z,30.20
2019-01-16T06:46:33.841Z,29.95
2019-01-16T06:47:25.318Z,34.83
2019-01-16T06:48:23.480Z,33.73
2019-01-16T06:49:07.869Z,31.75
2019-01-16T06:50:05.160Z,29.80
2019-01-16T06:50:56.562Z,36.50
2019-01-16T06:51:39.908Z,33.70
2019-01-16T06:52:21.573Z,36.70
2019-01-16T06:53:21.166Z,35.38
2019-01-16T06:54:07.962Z,31.90
2019-01-16T06:55:00.706Z,30.75
2019-01-16T06:55:49.536Z,35.10
2019-01-16T06:56:40.928Z,37.65
2019-01-16T06:57:37.664Z,30.50
2019-01-16T06:58:20.987Z,33.75
2019-01-16T06:59:20.687Z,31.33
2019-01-16T07:00:19.245Z,32.65
2019-01-16T07:01:17.599Z,35.08
2019-01-16T07:02:13.164Z,36.08
2019-01-16T07:03:24.119Z,34.33
2019-01-16T07:04:16.931Z,31.07
2019-01-16T07:05:00.235Z,35.38
2019-01-16T07:05:52.894Z,34.10
2019-01-16T07:06:51.830Z,35.40
2019-01-16T07:07:44.625Z,37.98
2019-01-16T07:08:40.680Z,40.88
2019-01-16T07:09:51.767Z,33.20
2019-01-16T07:10:50.219Z,35.65
2019-01-16T07:11:46.049Z,36.58
2019-01-16T07:12:41.417Z,40.40
2019-01-16T07:13:40.230Z,35.68
2019-01-16T07:14:23.536Z,38.55
2019-01-16T07:15:14.862Z,35.73
2019-01-16T07:16:07.676Z,37.98
2019-01-16T07:17:02.588Z,35.28
2019-01-16T07:17:59.188Z,38.73
2019-01-16T07:18:51.459Z,38.15
2019-01-16T07:19:46.782Z,37.23
2019-01-16T07:20:42.422Z,35.35
2019-01-16T07:21:36.115Z,35.63
2019-01-16T07:22:27.711Z,35.15
2019-01-16T07:23:09.529Z,36.63
2019-01-16T07:23:49.739Z,41.98
2019-01-16T07:24:42.390Z,35.17
2019-01-16T07:25:27.217Z,35.13
2019-01-16T07:26:11.341Z,35.75
2019-01-16T07:26:55.501Z,37.25
2019-01-16T07:27:48.605Z,37.58
2019-01-16T07:28:38.823Z,39.35
2019-01-16T07:29:31.142Z,37.48
2019-01-16T07:30:31.851Z,36.68
2019-01-16T07:31:30.853Z,37.15
2019-01-16T07:32:24.017Z,34.88
2019-01-16T07:33:09.844Z,36.70
2019-01-16T07:34:04.934Z,37.90
2019-01-16T07:35:06.837Z,36.28
2019-01-16T07:35:48.469Z,37.63
2019-01-16T07:36:39.771Z,39.85
2019-01-16T07:37:31.237Z,37.30
2019-01-16T07:38:21.108Z,38.40
2019-01-16T07:39:26.605Z,36.95
2019-01-16T07:40:15.333Z,43.90
2019-01-16T07:41:17.280Z,42.70
2019-01-16T07:42:05.535Z,37.63
2019-01-16T07:43:00.221Z,43.33
2019-01-16T07:43:57.504Z,40.25
2019-01-16T07:44:53.301Z,43.20
2019-01-16T07:46:04.102Z,41.10
2019-01-16T07:47:00.163Z,42.20
2019-01-16T07:48:01.158Z,45.35
2019-01-16T07:48:59.969Z,43.17
2019-01-16T07:49:51.347Z,40.12
2019-01-16T07:50:53.130Z,40.08
2019-01-16T07:51:44.195Z,44.20
2019-01-16T07:52:45.892Z,42.38
2019-01-16T07:53:37.647Z,46.33
2019-01-16T07:54:25.065Z,46.80
2019-01-16T07:55:12.904Z,40.25
2019-01-16T07:56:05.721Z,46.58
2019-01-16T07:57:00.904Z,44.48
2019-01-16T07:57:54.586Z,42.33
2019-01-16T07:58:47.307Z,46.40
2019-01-16T07:59:48.132Z,40.75
2019-01-16T08:00:50.695Z,42.40
2019-01-16T08:01:50.478Z,41.73
2019-01-16T08:02:43.339Z,49.20
2019-01-16T08:03:44.259Z,47.27
2019-01-16T08:04:43.150Z,46.68
2019-01-16T08:05:29.540Z,49.03
2019-01-16T08:06:25.421Z,39.50
2019-01-16T08:07:23.873Z,43.30
2019-01-16T08:08:31.350Z,40.78
2019-01-16T08:09:30.254Z,43.58
2019-01-16T08:10:32.176Z,43.23
2019-01-16T08:11:37.041Z,44.80
2019-01-16T08:12:28.410Z,43.60
2019-01-16T08:13:33.511Z,45.58
2019-01-16T08:14:26.387Z,40.03
2019-01-16T08:15:24.961Z,45.50
2019-01-16T08:16:22.234Z,50.08
2019-01-16T08:17:16.083Z,41.98
2019-01-16T08:18:11.857Z,40.50
2019-01-16T08:19:04.693Z,41.42
2019-01-16T08:20:02.832Z,41.53
2019-01-16T08:21:17.154Z,46.63
2019-01-16T08:22:09.941Z,48.42
2019-01-16T08:22:51.885Z,38.42
2019-01-16T08:24:02.888Z,43.78
2019-01-16T08:24:53.480Z,42.98
2019-01-16T08:25:51.933Z,39.30
2019-01-16T08:26:42.317Z,40.65
2019-01-16T08:27:35.126Z,43.95
2019-01-16T08:28:40.106Z,42.33
2019-01-16T08:29:31.055Z,45.03
2019-01-16T08:30:28.228Z,37.75
2019-01-16T08:31:08.730Z,41.13
2019-01-16T08:32:07.514Z,39.10
2019-01-16T08:33:06.432Z,39.60
2019-01-16T08:34:11.525Z,34.58
2019-01-16T08:34:56.479Z,39.90
2019-01-16T08:35:56.290Z,40.23
2019-01-16T08:36:39.182Z,40.05
2019-01-16T08:37:30.708Z,39.45
2019-01-16T08:38:17.992Z,40.35
2019-01-16T08:39:06.729Z,38.98
2019-01-16T08:39:59.047Z,39.30
2019-01-16T08:41:00.931Z,35.03
2019-01-16T08:41:56.456Z,40.23
2019-01-16T08:42:47.942Z,34.60
2019-01-16T08:43:49.915Z,36.45
2019-01-16T08:44:57.950Z,40.55
2019-01-16T08:45:49.424Z,36.68
2019-01-16T08:46:45.213Z,34.08
2019-01-16T08:47:37.103Z,36.00
2019-01-16T08:48:42.722Z,37.20
2019-01-16T08:49:34.008Z,35.20
2019-01-16T08:50:36.416Z,37.93
2019-01-16T08:51:48.701Z,36.63
2019-01-16T08:52:40.770Z,35.78
2019-01-16T08:53:32.307Z,37.38
2019-01-16T08:54:40.362Z,35.68
2019-01-16T08:55:36.364Z,34.83
2019-01-16T08:56:27.708Z,36.88
2019-01-16T08:57:13.319Z,36.33
2019-01-16T08:58:04.986Z,36.93
2019-01-16T08:59:00.243Z,35.17
2019-01-16T08:59:58.727Z,39.27
2019-01-16T09:00:54.854Z,40.90
2019-01-16T09:01:46.626Z,39.08
2019-01-16T09:02:39.432Z,36.63
2019-01-16T09:03:30.984Z,36.70
2019-01-16T09:04:23.142Z,36.40
2019-01-16T09:05:09.682Z,41.23
2019-01-16T09:05:58.622Z,37.88
2019-01-16T09:07:06.338Z,36.50
2019-01-16T09:07:51.165Z,43.45
2019-01-16T09:08:34.073Z,37.23
2019-01-16T09:09:23.163Z,40.78
2019-01-16T09:10:15.660Z,37.70
2019-01-16T09:11:07.348Z,37.88
2019-01-16T09:11:58.948Z,40.10
2019-01-16T09:12:50.464Z,38.13
2019-01-16T09:13:43.162Z,35.33
2019-01-16T09:14:34.386Z,41.98
2019-01-16T09:15:34.987Z,38.50
2019-01-16T09:16:32.612Z,35.85
2019-01-16T09:17:26.346Z,37.35
2019-01-16T09:18:30.933Z,35.48
2019-01-16T09:19:22.132Z,39.25
2019-01-16T09:20:06.814Z,38.35
2019-01-16T09:20:51.762Z,40.28
2019-01-16T09:21:50.178Z,38.75
2019-01-16T09:22:58.181Z,38.38
2019-01-16T09:23:50.930Z,40.88
2019-01-16T09:24:40.551Z,37.67
2019-01-16T09:25:32.133Z,35.35
2019-01-16T09:26:26.940Z,35.68
2019-01-16T09:27:19.528Z,37.08
2019-01-16T09:28:03.782Z,36.28
2019-01-16T09:28:47.920Z,37.15
2019-01-16T09:29:58.489Z,37.17
2019-01-16T09:30:58.364Z,37.95
2019-01-16T09:31:47.230Z,38.67
2019-01-16T09:32:38.556Z,39.48
2019-01-16T09:33:23.372Z,38.63
2019-01-16T09:34:15.941Z,39.27
2019-01-16T09:35:08.635Z,34.98
2019-01-16T09:35:53.188Z,35.20
2019-01-16T09:36:51.871Z,37.88
2019-01-16T09:37:56.505Z,37.00
2019-01-16T09:38:46.057Z,33.25
2019-01-16T09:39:51.128Z,37.05
2019-01-16T09:40:49.561Z,37.40
2019-01-16T09:41:41.148Z,40.00
2019-01-16T09:42:31.951Z,34.70
2019-01-16T09:43:19.148Z,35.73
2019-01-16T09:44:11.852Z,33.60
2019-01-16T09:44:59.511Z,34.58
2019-01-16T09:45:51.136Z,34.95
2019-01-16T09:46:55.689Z,34.25
2019-01-16T09:47:47.025Z,35.25
2019-01-16T09:48:38.522Z,37.48
2019-01-16T09:49:31.089Z,36.08
2019-01-16T09:50:13.054Z,34.38
2019-01-16T09:50:55.981Z,34.23
2019-01-16T09:51:47.269Z,35.30
2019-01-16T09:52:48.848Z,35.75
2019-01-16T09:53:51.025Z,35.90
2019-01-16T09:54:42.575Z,35.28
2019-01-16T09:55:27.017Z,33.88
2019-01-16T09:56:18.728Z,34.10
2019-01-16T09:57:18.683Z,34.92
2019-01-16T09:58:29.432Z,34.48
2019-01-16T09:59:20.526Z,34.67
2019-01-16T10:00:13.147Z,33.00
2019-01-16T10:01:18.129Z,33.88
2019-01-16T10:02:16.565Z,34.08
2019-01-16T10:03:27.685Z,34.18
2019-01-16T10:04:29.132Z,34.88
2019-01-16T10:05:37.423Z,34.38
2019-01-16T10:06:36.139Z,34.08
2019-01-16T10:07:19.267Z,34.33
2019-01-16T10:08:03.459Z,34.60
2019-01-16T10:08:56.227Z,38.80
2019-01-16T10:09:46.573Z,39.03
2019-01-16T10:10:51.589Z,34.50
2019-01-16T10:11:43.045Z,37.25
2019-01-16T10:12:35.464Z,34.08
2019-01-16T10:13:26.866Z,35.58
2019-01-16T10:14:28.543Z,35.38
2019-01-16T10:15:24.105Z,36.35
2019-01-16T10:16:25.855Z,39.90
2019-01-16T10:17:09.476Z,36.35
2019-01-16T10:18:04.685Z,35.60
2019-01-16T10:18:56.277Z,34.95
2019-01-16T10:19:46.071Z,36.95
2019-01-16T10:20:31.725Z,40.28
2019-01-16T10:21:30.670Z,37.28
2019-01-16T10:22:23.551Z,36.40
2019-01-16T10:23:07.670Z,36.45
2019-01-16T10:24:03.751Z,33.55
2019-01-16T10:24:53.275Z,35.10
2019-01-16T10:25:33.717Z,36.75
2019-01-16T10:26:32.975Z,35.40
2019-01-16T10:27:16.103Z,35.88
2019-01-16T10:28:07.380Z,38.40
2019-01-16T10:28:58.921Z,36.53
2019-01-16T10:29:43.749Z,36.23
2019-01-16T10:30:28.885Z,36.77
2019-01-16T10:31:21.650Z,37.15
2019-01-16T10:32:23.874Z,38.33
2019-01-16T10:33:16.663Z,34.27
2019-01-16T10:34:08.003Z,37.98
2019-01-16T10:35:11.058Z,33.98
2019-01-16T10:36:03.883Z,36.83
2019-01-16T10:36:59.565Z,38.48
2019-01-16T10:37:52.421Z,35.85
2019-01-16T10:38:56.719Z,35.33
2019-01-16T10:39:39.437Z,35.90
2019-01-16T10:40:30.954Z,35.60
2019-01-16T10:41:22.596Z,41.68
2019-01-16T10:42:10.655Z,37.55
2019-01-16T10:43:07.457Z,36.35
2019-01-16T10:43:48.763Z,36.23
2019-01-16T10:44:38.333Z,39.53
2019-01-16T10:45:25.747Z,36.75
2019-01-16T10:46:15.725Z,37.63
2019-01-16T10:47:09.462Z,43.45
2019-01-16T10:48:04.825Z,37.65
2019-01-16T10:48:49.789Z,37.10
2019-01-16T10:50:02.729Z,37.98
2019-01-16T10:51:07.550Z,37.55
2019-01-16T10:52:02.844Z,41.85
2019-01-16T10:52:52.824Z,35.58
2019-01-16T10:53:44.138Z,34.48
2019-01-16T10:54:27.017Z,36.38
2019-01-16T10:55:24.177Z,38.78
2019-01-16T10:56:31.975Z,34.38
2019-01-16T10:57:23.733Z,35.63
2019-01-16T10:58:18.446Z,39.30
2019-01-16T10:59:03.019Z,34.18
2019-01-16T10:59:52.496Z,37.30
2019-01-16T11:00:48.384Z,34.50
2019-01-16T11:01:50.083Z,34.55
2019-01-16T11:02:50.760Z,33.25
2019-01-16T11:03:46.051Z,32.60
2019-01-16T11:04:41.851Z,33.28
2019-01-16T11:05:40.919Z,32.55
2019-01-16T11:06:39.848Z,36.03
2019-01-16T11:07:35.486Z,33.67
2019-01-16T11:08:35.229Z,34.20
2019-01-16T11:09:28.475Z,32.98
2019-01-16T11:10:26.437Z,34.73
2019-01-16T11:11:38.639Z,32.85
2019-01-16T11:12:40.504Z,31.35
2019-01-16T11:13:31.894Z,36.30
2019-01-16T11:14:24.821Z,33.10
2019-01-16T11:15:36.607Z,33.35
2019-01-16T11:16:28.370Z,32.53
2019-01-16T11:17:18.568Z,32.88
2019-01-16T11:18:20.450Z,33.45
2019-01-16T11:19:05.531Z,33.38
2019-01-16T11:19:56.205Z,31.37
2019-01-16T11:20:51.787Z,32.45
2019-01-16T11:21:43.444Z,33.28
2019-01-16T11:22:36.202Z,32.17
2019-01-16T11:23:27.728Z,31.82
2019-01-16T11:24:10.958Z,33.33
2019-01-16T11:25:05.445Z,32.75
2019-01-16T11:25:56.785Z,32.10
2019-01-16T11:26:39.866Z,31.57
2019-01-16T11:27:31.165Z,31.68
2019-01-16T11:28:32.255Z,32.08
2019-01-16T11:29:23.435Z,32.58
2019-01-16T11:30:26.262Z,31.25
2019-01-16T11:31:24.445Z,31.60
2019-01-16T11:32:16.041Z,32.05